sensor_id;sensor_type;location;lat;lon;timestamp;temperature;humidity
8313;DHT22;4194;43.408;24.626;2023-06-22T00:01:18;21.30;99.90
8313;DHT22;4194;43.408;24.626;2023-06-22T00:03:44;21.20;99.90
8313;DHT22;4194;43.408;24.626;2023-06-22T00:06:09;21.20;99.90
8313;DHT22;4194;43.408;24.626;2023-06-22T00:08:35;21.10;99.90
8313;DHT22;4194;43.408;24.626;2023-06-22T00:11:01;21.10;99.90
8313;DHT22;4194;43.408;24.626;2023-06-22T00:13:26;21.20;99.90
8313;DHT22;4194;43.408;24.626;2023-06-22T00:15:52;21.10;99.90
8313;DHT22;4194;43.408;24.626;2023-06-22T00:18:18;21.00;99.90
8313;DHT22;4194;43.408;24.626;2023-06-22T00:20:43;21.30;99.90
8313;DHT22;4194;43.408;24.626;2023-06-22T00:23:11;21.10;99.90
8313;DHT22;4194;43.408;24.626;2023-06-22T00:25:40;21.20;99.90
8313;DHT22;4194;43.408;24.626;2023-06-22T00:28:06;21.10;99.90
8313;DHT22;4194;43.408;24.626;2023-06-22T00:30:33;21.00;99.90
8313;DHT22;4194;43.408;24.626;2023-06-22T00:32:59;21.00;99.90
8313;DHT22;4194;43.408;24.626;2023-06-22T00:35:26;20.90;99.90
8313;DHT22;4194;43.408;24.626;2023-06-22T00:37:58;20.90;99.90
8313;DHT22;4194;43.408;24.626;2023-06-22T00:40:28;20.90;99.90
8313;DHT22;4194;43.408;24.626;2023-06-22T00:42:54;21.00;99.90
8313;DHT22;4194;43.408;24.626;2023-06-22T00:45:20;20.90;99.90
8313;DHT22;4194;43.408;24.626;2023-06-22T00:47:51;21.10;99.90
8313;DHT22;4194;43.408;24.626;2023-06-22T00:50:20;20.80;99.90
8313;DHT22;4194;43.408;24.626;2023-06-22T00:52:57;20.90;99.90
8313;DHT22;4194;43.408;24.626;2023-06-22T00:55:24;20.70;99.90
8313;DHT22;4194;43.408;24.626;2023-06-22T00:57:52;20.80;99.90
8313;DHT22;4194;43.408;24.626;2023-06-22T01:00:23;20.80;99.90
8313;DHT22;4194;43.408;24.626;2023-06-22T01:02:53;20.60;99.90
8313;DHT22;4194;43.408;24.626;2023-06-22T01:05:20;20.60;99.90
8313;DHT22;4194;43.408;24.626;2023-06-22T01:10:41;20.50;99.90
8313;DHT22;4194;43.408;24.626;2023-06-22T01:13:28;20.50;99.90
8313;DHT22;4194;43.408;24.626;2023-06-22T01:18:28;20.60;99.90
8313;DHT22;4194;43.408;24.626;2023-06-22T01:20:56;20.60;99.90
8313;DHT22;4194;43.408;24.626;2023-06-22T01:28:29;20.60;99.90
8313;DHT22;4194;43.408;24.626;2023-06-22T01:30:57;20.50;99.90
8313;DHT22;4194;43.408;24.626;2023-06-22T01:33:35;20.50;99.90
8313;DHT22;4194;43.408;24.626;2023-06-22T01:36:03;20.40;99.90
8313;DHT22;4194;43.408;24.626;2023-06-22T01:38:30;20.40;99.90
8313;DHT22;4194;43.408;24.626;2023-06-22T01:40:57;20.40;99.90
8313;DHT22;4194;43.408;24.626;2023-06-22T01:43:26;20.30;99.90
8313;DHT22;4194;43.408;24.626;2023-06-22T01:45:53;20.30;99.90
8313;DHT22;4194;43.408;24.626;2023-06-22T01:48:19;20.50;99.90
8313;DHT22;4194;43.408;24.626;2023-06-22T01:50:45;20.30;99.90
8313;DHT22;4194;43.408;24.626;2023-06-22T01:53:11;20.50;99.90
8313;DHT22;4194;43.408;24.626;2023-06-22T01:55:37;20.20;99.90
8313;DHT22;4194;43.408;24.626;2023-06-22T01:58:02;20.20;99.90
8313;DHT22;4194;43.408;24.626;2023-06-22T02:00:36;20.30;99.90
8313;DHT22;4194;43.408;24.626;2023-06-22T02:03:11;20.10;99.90
8313;DHT22;4194;43.408;24.626;2023-06-22T02:05:58;20.30;99.90
8313;DHT22;4194;43.408;24.626;2023-06-22T02:08:41;20.00;99.90
8313;DHT22;4194;43.408;24.626;2023-06-22T02:11:08;20.10;99.90
8313;DHT22;4194;43.408;24.626;2023-06-22T02:13:37;20.30;99.90
8313;DHT22;4194;43.408;24.626;2023-06-22T02:16:03;20.10;99.90
8313;DHT22;4194;43.408;24.626;2023-06-22T02:18:29;20.10;99.90
8313;DHT22;4194;43.408;24.626;2023-06-22T02:20:55;20.10;99.90
8313;DHT22;4194;43.408;24.626;2023-06-22T02:23:21;20.00;99.90
8313;DHT22;4194;43.408;24.626;2023-06-22T02:25:46;20.20;99.90
8313;DHT22;4194;43.408;24.626;2023-06-22T02:28:12;20.00;99.90
8313;DHT22;4194;43.408;24.626;2023-06-22T02:30:37;20.00;99.90
8313;DHT22;4194;43.408;24.626;2023-06-22T02:33:03;20.10;99.90
8313;DHT22;4194;43.408;24.626;2023-06-22T02:35:29;19.90;99.90
8313;DHT22;4194;43.408;24.626;2023-06-22T02:38:00;20.20;99.90
8313;DHT22;4194;43.408;24.626;2023-06-22T02:40:26;20.00;99.90
8313;DHT22;4194;43.408;24.626;2023-06-22T02:42:52;20.00;99.90
8313;DHT22;4194;43.408;24.626;2023-06-22T02:45:17;19.90;99.90
8313;DHT22;4194;43.408;24.626;2023-06-22T02:47:43;19.90;99.90
8313;DHT22;4194;43.408;24.626;2023-06-22T02:50:09;19.70;99.90
8313;DHT22;4194;43.408;24.626;2023-06-22T02:52:35;19.60;99.90
8313;DHT22;4194;43.408;24.626;2023-06-22T02:55:01;19.80;99.90
8313;DHT22;4194;43.408;24.626;2023-06-22T02:57:26;19.70;99.90
8313;DHT22;4194;43.408;24.626;2023-06-22T02:59:52;19.80;99.90
8313;DHT22;4194;43.408;24.626;2023-06-22T03:02:18;19.90;99.90
8313;DHT22;4194;43.408;24.626;2023-06-22T03:04:47;19.80;99.90
8313;DHT22;4194;43.408;24.626;2023-06-22T03:07:14;19.90;99.90
8313;DHT22;4194;43.408;24.626;2023-06-22T03:09:39;20.00;99.90
8313;DHT22;4194;43.408;24.626;2023-06-22T03:12:06;19.90;99.90
8313;DHT22;4194;43.408;24.626;2023-06-22T03:14:32;19.90;99.90
8313;DHT22;4194;43.408;24.626;2023-06-22T03:16:57;20.00;99.90
8313;DHT22;4194;43.408;24.626;2023-06-22T03:19:28;20.00;99.90
8313;DHT22;4194;43.408;24.626;2023-06-22T03:21:57;20.00;99.90
8313;DHT22;4194;43.408;24.626;2023-06-22T03:24:22;20.20;99.90
8313;DHT22;4194;43.408;24.626;2023-06-22T03:26:48;20.20;99.90
8313;DHT22;4194;43.408;24.626;2023-06-22T03:29:14;20.30;99.90
8313;DHT22;4194;43.408;24.626;2023-06-22T03:31:41;20.60;99.90
8313;DHT22;4194;43.408;24.626;2023-06-22T03:34:06;20.70;99.90
8313;DHT22;4194;43.408;24.626;2023-06-22T03:36:32;20.50;99.90
8313;DHT22;4194;43.408;24.626;2023-06-22T03:38:58;20.60;99.90
8313;DHT22;4194;43.408;24.626;2023-06-22T03:41:24;20.70;99.90
8313;DHT22;4194;43.408;24.626;2023-06-22T03:43:50;20.70;99.90
8313;DHT22;4194;43.408;24.626;2023-06-22T03:46:16;20.80;99.90
8313;DHT22;4194;43.408;24.626;2023-06-22T03:48:42;20.80;99.90
8313;DHT22;4194;43.408;24.626;2023-06-22T03:51:07;21.20;99.90
8313;DHT22;4194;43.408;24.626;2023-06-22T03:53:33;21.20;99.90
8313;DHT22;4194;43.408;24.626;2023-06-22T03:55:59;21.20;99.90
8313;DHT22;4194;43.408;24.626;2023-06-22T03:58:25;21.40;99.90
8313;DHT22;4194;43.408;24.626;2023-06-22T04:00:52;21.30;99.90
8313;DHT22;4194;43.408;24.626;2023-06-22T04:03:18;21.40;99.90
8313;DHT22;4194;43.408;24.626;2023-06-22T04:05:44;21.50;99.90
8313;DHT22;4194;43.408;24.626;2023-06-22T04:08:11;21.70;99.90
8313;DHT22;4194;43.408;24.626;2023-06-22T04:10:37;21.40;99.90
8313;DHT22;4194;43.408;24.626;2023-06-22T04:13:03;21.70;99.90
8313;DHT22;4194;43.408;24.626;2023-06-22T04:15:28;21.70;99.90
8313;DHT22;4194;43.408;24.626;2023-06-22T04:17:55;21.80;99.90
8313;DHT22;4194;43.408;24.626;2023-06-22T04:20:21;21.80;99.90
8313;DHT22;4194;43.408;24.626;2023-06-22T04:22:46;22.00;99.90
8313;DHT22;4194;43.408;24.626;2023-06-22T04:25:12;22.00;99.90
8313;DHT22;4194;43.408;24.626;2023-06-22T04:27:37;22.20;99.90
8313;DHT22;4194;43.408;24.626;2023-06-22T04:30:07;22.30;99.90
8313;DHT22;4194;43.408;24.626;2023-06-22T04:32:36;22.40;99.90
8313;DHT22;4194;43.408;24.626;2023-06-22T04:35:03;22.60;99.90
8313;DHT22;4194;43.408;24.626;2023-06-22T04:37:30;22.60;99.90
8313;DHT22;4194;43.408;24.626;2023-06-22T04:39:56;22.90;99.90
8313;DHT22;4194;43.408;24.626;2023-06-22T04:42:22;22.90;99.90
8313;DHT22;4194;43.408;24.626;2023-06-22T04:44:47;23.20;99.90
8313;DHT22;4194;43.408;24.626;2023-06-22T04:47:13;23.30;99.90
8313;DHT22;4194;43.408;24.626;2023-06-22T04:49:39;23.70;99.90
8313;DHT22;4194;43.408;24.626;2023-06-22T04:52:10;23.40;99.90
8313;DHT22;4194;43.408;24.626;2023-06-22T04:54:37;23.70;99.90
8313;DHT22;4194;43.408;24.626;2023-06-22T04:57:05;24.20;99.90
8313;DHT22;4194;43.408;24.626;2023-06-22T04:59:35;23.70;99.90
8313;DHT22;4194;43.408;24.626;2023-06-22T05:02:02;23.80;99.90
8313;DHT22;4194;43.408;24.626;2023-06-22T05:04:29;24.00;99.90
8313;DHT22;4194;43.408;24.626;2023-06-22T05:06:57;24.10;99.90
8313;DHT22;4194;43.408;24.626;2023-06-22T05:09:23;24.20;99.90
8313;DHT22;4194;43.408;24.626;2023-06-22T05:11:50;24.10;99.90
8313;DHT22;4194;43.408;24.626;2023-06-22T05:14:16;24.10;99.90
8313;DHT22;4194;43.408;24.626;2023-06-22T05:16:42;24.30;99.90
8313;DHT22;4194;43.408;24.626;2023-06-22T05:19:09;24.50;99.90
8313;DHT22;4194;43.408;24.626;2023-06-22T05:21:34;24.50;99.90
8313;DHT22;4194;43.408;24.626;2023-06-22T05:24:00;24.60;99.90
8313;DHT22;4194;43.408;24.626;2023-06-22T05:26:28;24.50;99.90
8313;DHT22;4194;43.408;24.626;2023-06-22T05:28:54;24.60;99.90
8313;DHT22;4194;43.408;24.626;2023-06-22T05:31:20;24.50;99.90
8313;DHT22;4194;43.408;24.626;2023-06-22T05:33:48;24.40;99.90
8313;DHT22;4194;43.408;24.626;2023-06-22T05:36:14;24.40;99.90
8313;DHT22;4194;43.408;24.626;2023-06-22T05:38:40;24.40;99.90
8313;DHT22;4194;43.408;24.626;2023-06-22T05:41:06;24.10;99.90
8313;DHT22;4194;43.408;24.626;2023-06-22T05:43:32;24.00;99.90
8313;DHT22;4194;43.408;24.626;2023-06-22T05:45:59;24.00;99.90
8313;DHT22;4194;43.408;24.626;2023-06-22T05:48:25;23.80;99.90
8313;DHT22;4194;43.408;24.626;2023-06-22T05:50:50;23.90;99.90
8313;DHT22;4194;43.408;24.626;2023-06-22T05:53:16;24.20;99.90
8313;DHT22;4194;43.408;24.626;2023-06-22T05:55:42;24.40;99.90
8313;DHT22;4194;43.408;24.626;2023-06-22T05:58:08;24.30;99.90
8313;DHT22;4194;43.408;24.626;2023-06-22T06:00:34;24.60;99.90
8313;DHT22;4194;43.408;24.626;2023-06-22T06:03:00;24.50;99.90
8313;DHT22;4194;43.408;24.626;2023-06-22T06:05:32;24.70;99.90
8313;DHT22;4194;43.408;24.626;2023-06-22T06:08:03;24.50;99.90
8313;DHT22;4194;43.408;24.626;2023-06-22T06:10:30;24.60;99.90
8313;DHT22;4194;43.408;24.626;2023-06-22T06:12:56;24.80;99.90
8313;DHT22;4194;43.408;24.626;2023-06-22T06:15:22;25.00;99.90
8313;DHT22;4194;43.408;24.626;2023-06-22T06:17:52;25.10;99.90
8313;DHT22;4194;43.408;24.626;2023-06-22T06:20:25;25.20;99.90
8313;DHT22;4194;43.408;24.626;2023-06-22T06:22:52;25.20;99.90
8313;DHT22;4194;43.408;24.626;2023-06-22T06:25:18;25.40;99.70
8313;DHT22;4194;43.408;24.626;2023-06-22T06:27:46;25.30;99.60
8313;DHT22;4194;43.408;24.626;2023-06-22T06:30:13;25.20;99.30
8313;DHT22;4194;43.408;24.626;2023-06-22T06:32:40;25.40;99.90
8313;DHT22;4194;43.408;24.626;2023-06-22T06:35:07;25.30;99.30
8313;DHT22;4194;43.408;24.626;2023-06-22T06:37:36;25.40;98.60
8313;DHT22;4194;43.408;24.626;2023-06-22T06:40:03;25.40;98.20
8313;DHT22;4194;43.408;24.626;2023-06-22T06:42:30;25.40;98.00
8313;DHT22;4194;43.408;24.626;2023-06-22T06:44:56;25.60;97.80
8313;DHT22;4194;43.408;24.626;2023-06-22T06:47:22;25.80;97.20
8313;DHT22;4194;43.408;24.626;2023-06-22T06:49:48;26.00;97.30
8313;DHT22;4194;43.408;24.626;2023-06-22T06:52:14;26.30;96.50
8313;DHT22;4194;43.408;24.626;2023-06-22T06:54:40;26.20;95.70
8313;DHT22;4194;43.408;24.626;2023-06-22T06:57:07;26.40;95.80
8313;DHT22;4194;43.408;24.626;2023-06-22T06:59:36;26.50;96.10
8313;DHT22;4194;43.408;24.626;2023-06-22T07:02:01;26.50;95.40
8313;DHT22;4194;43.408;24.626;2023-06-22T07:04:27;26.50;94.90
8313;DHT22;4194;43.408;24.626;2023-06-22T07:06:53;26.50;94.30
8313;DHT22;4194;43.408;24.626;2023-06-22T07:09:18;26.50;94.10
8313;DHT22;4194;43.408;24.626;2023-06-22T07:11:44;26.70;94.10
8313;DHT22;4194;43.408;24.626;2023-06-22T07:14:10;26.90;94.20
8313;DHT22;4194;43.408;24.626;2023-06-22T07:16:35;27.00;93.30
8313;DHT22;4194;43.408;24.626;2023-06-22T07:19:01;27.10;92.60
8313;DHT22;4194;43.408;24.626;2023-06-22T07:21:27;27.20;92.70
8313;DHT22;4194;43.408;24.626;2023-06-22T07:23:52;27.30;92.70
8313;DHT22;4194;43.408;24.626;2023-06-22T07:26:19;27.40;92.50
8313;DHT22;4194;43.408;24.626;2023-06-22T07:28:45;27.40;92.80
8313;DHT22;4194;43.408;24.626;2023-06-22T07:31:11;27.70;92.70
8313;DHT22;4194;43.408;24.626;2023-06-22T07:33:36;27.80;92.70
8313;DHT22;4194;43.408;24.626;2023-06-22T07:36:02;27.90;91.60
8313;DHT22;4194;43.408;24.626;2023-06-22T07:38:33;27.90;91.20
8313;DHT22;4194;43.408;24.626;2023-06-22T07:40:59;28.00;90.80
8313;DHT22;4194;43.408;24.626;2023-06-22T07:43:25;28.20;90.30
8313;DHT22;4194;43.408;24.626;2023-06-22T07:45:50;28.20;90.20
8313;DHT22;4194;43.408;24.626;2023-06-22T07:48:22;28.40;89.60
8313;DHT22;4194;43.408;24.626;2023-06-22T07:50:48;28.50;88.40
8313;DHT22;4194;43.408;24.626;2023-06-22T07:53:14;28.40;88.90
8313;DHT22;4194;43.408;24.626;2023-06-22T07:55:40;28.50;90.20
8313;DHT22;4194;43.408;24.626;2023-06-22T07:58:06;28.50;90.70
8313;DHT22;4194;43.408;24.626;2023-06-22T08:00:33;28.80;90.40
8313;DHT22;4194;43.408;24.626;2023-06-22T08:02:59;28.30;90.70
8313;DHT22;4194;43.408;24.626;2023-06-22T08:05:24;28.50;90.50
8313;DHT22;4194;43.408;24.626;2023-06-22T08:07:50;28.70;90.10
8313;DHT22;4194;43.408;24.626;2023-06-22T08:10:16;28.80;88.80
8313;DHT22;4194;43.408;24.626;2023-06-22T08:12:42;29.10;89.90
8313;DHT22;4194;43.408;24.626;2023-06-22T08:15:08;29.20;89.50
8313;DHT22;4194;43.408;24.626;2023-06-22T08:17:36;29.40;90.10
8313;DHT22;4194;43.408;24.626;2023-06-22T08:20:02;29.30;89.10
8313;DHT22;4194;43.408;24.626;2023-06-22T08:22:34;29.50;86.10
8313;DHT22;4194;43.408;24.626;2023-06-22T08:25:01;29.60;84.70
8313;DHT22;4194;43.408;24.626;2023-06-22T08:27:28;29.80;85.80
8313;DHT22;4194;43.408;24.626;2023-06-22T08:29:56;29.80;86.10
8313;DHT22;4194;43.408;24.626;2023-06-22T08:32:27;29.80;85.70
8313;DHT22;4194;43.408;24.626;2023-06-22T08:34:54;30.00;85.40
8313;DHT22;4194;43.408;24.626;2023-06-22T08:37:20;30.20;85.30
8313;DHT22;4194;43.408;24.626;2023-06-22T08:39:49;30.30;85.40
8313;DHT22;4194;43.408;24.626;2023-06-22T08:42:15;30.40;85.20
8313;DHT22;4194;43.408;24.626;2023-06-22T08:44:40;30.50;83.60
8313;DHT22;4194;43.408;24.626;2023-06-22T08:47:06;30.40;82.40
8313;DHT22;4194;43.408;24.626;2023-06-22T08:49:32;30.20;81.60
8313;DHT22;4194;43.408;24.626;2023-06-22T08:51:57;30.40;81.70
8313;DHT22;4194;43.408;24.626;2023-06-22T08:54:23;30.50;80.40
8313;DHT22;4194;43.408;24.626;2023-06-22T08:56:49;30.60;79.40
8313;DHT22;4194;43.408;24.626;2023-06-22T08:59:14;30.70;79.90
8313;DHT22;4194;43.408;24.626;2023-06-22T09:01:40;30.70;78.10
8313;DHT22;4194;43.408;24.626;2023-06-22T09:04:06;31.00;77.60
8313;DHT22;4194;43.408;24.626;2023-06-22T09:06:34;30.90;76.00
8313;DHT22;4194;43.408;24.626;2023-06-22T09:09:00;30.90;77.10
8313;DHT22;4194;43.408;24.626;2023-06-22T09:11:26;31.00;75.70
8313;DHT22;4194;43.408;24.626;2023-06-22T09:13:51;30.80;76.20
8313;DHT22;4194;43.408;24.626;2023-06-22T09:16:19;30.80;74.80
8313;DHT22;4194;43.408;24.626;2023-06-22T09:18:48;31.10;74.80
8313;DHT22;4194;43.408;24.626;2023-06-22T09:21:14;31.30;74.00
8313;DHT22;4194;43.408;24.626;2023-06-22T09:23:40;31.50;72.70
8313;DHT22;4194;43.408;24.626;2023-06-22T09:26:06;31.50;74.90
8313;DHT22;4194;43.408;24.626;2023-06-22T09:28:31;31.60;72.60
8313;DHT22;4194;43.408;24.626;2023-06-22T09:30:58;32.10;72.90
8313;DHT22;4194;43.408;24.626;2023-06-22T09:33:26;32.00;72.10
8313;DHT22;4194;43.408;24.626;2023-06-22T09:35:51;32.20;71.40
8313;DHT22;4194;43.408;24.626;2023-06-22T09:38:17;32.30;70.10
8313;DHT22;4194;43.408;24.626;2023-06-22T09:40:43;32.50;69.30
8313;DHT22;4194;43.408;24.626;2023-06-22T09:43:09;32.70;70.80
8313;DHT22;4194;43.408;24.626;2023-06-22T09:45:34;32.90;69.10
8313;DHT22;4194;43.408;24.626;2023-06-22T09:48:00;32.60;69.00
8313;DHT22;4194;43.408;24.626;2023-06-22T09:50:26;32.60;68.20
8313;DHT22;4194;43.408;24.626;2023-06-22T09:52:51;32.90;68.80
8313;DHT22;4194;43.408;24.626;2023-06-22T09:55:21;33.10;68.00
8313;DHT22;4194;43.408;24.626;2023-06-22T09:57:47;33.40;66.20
8313;DHT22;4194;43.408;24.626;2023-06-22T10:00:13;33.20;64.90
8313;DHT22;4194;43.408;24.626;2023-06-22T10:02:41;33.20;64.10
8313;DHT22;4194;43.408;24.626;2023-06-22T10:05:07;33.40;62.80
8313;DHT22;4194;43.408;24.626;2023-06-22T10:07:33;33.40;61.90
8313;DHT22;4194;43.408;24.626;2023-06-22T10:09:59;33.50;62.10
8313;DHT22;4194;43.408;24.626;2023-06-22T10:12:26;33.70;62.20
8313;DHT22;4194;43.408;24.626;2023-06-22T10:14:52;34.30;63.50
8313;DHT22;4194;43.408;24.626;2023-06-22T10:17:18;35.10;62.20
8313;DHT22;4194;43.408;24.626;2023-06-22T10:19:44;35.20;59.90
8313;DHT22;4194;43.408;24.626;2023-06-22T10:22:09;35.60;59.00
8313;DHT22;4194;43.408;24.626;2023-06-22T10:24:35;35.80;57.20
8313;DHT22;4194;43.408;24.626;2023-06-22T10:27:01;35.80;57.00
8313;DHT22;4194;43.408;24.626;2023-06-22T10:29:26;36.10;56.60
8313;DHT22;4194;43.408;24.626;2023-06-22T10:31:52;35.90;57.30
8313;DHT22;4194;43.408;24.626;2023-06-22T10:34:18;35.60;57.10
8313;DHT22;4194;43.408;24.626;2023-06-22T10:36:43;35.70;57.30
8313;DHT22;4194;43.408;24.626;2023-06-22T10:39:11;35.70;57.00
8313;DHT22;4194;43.408;24.626;2023-06-22T10:41:37;36.00;57.70
8313;DHT22;4194;43.408;24.626;2023-06-22T10:44:03;35.80;56.20
8313;DHT22;4194;43.408;24.626;2023-06-22T10:46:28;35.90;56.90
8313;DHT22;4194;43.408;24.626;2023-06-22T10:48:54;35.90;56.10
8313;DHT22;4194;43.408;24.626;2023-06-22T10:51:22;36.40;55.70
8313;DHT22;4194;43.408;24.626;2023-06-22T10:53:48;36.30;56.70
8313;DHT22;4194;43.408;24.626;2023-06-22T10:56:13;36.10;56.80
8313;DHT22;4194;43.408;24.626;2023-06-22T10:58:39;35.90;56.30
8313;DHT22;4194;43.408;24.626;2023-06-22T11:01:04;36.00;55.30
8313;DHT22;4194;43.408;24.626;2023-06-22T11:03:30;35.90;55.90
8313;DHT22;4194;43.408;24.626;2023-06-22T11:05:56;35.90;55.60
8313;DHT22;4194;43.408;24.626;2023-06-22T11:08:21;35.90;53.70
8313;DHT22;4194;43.408;24.626;2023-06-22T11:10:47;35.90;53.10
8313;DHT22;4194;43.408;24.626;2023-06-22T11:13:13;36.30;54.10
8313;DHT22;4194;43.408;24.626;2023-06-22T11:15:39;36.40;54.70
8313;DHT22;4194;43.408;24.626;2023-06-22T11:18:05;35.90;54.00
8313;DHT22;4194;43.408;24.626;2023-06-22T11:20:33;35.70;54.20
8313;DHT22;4194;43.408;24.626;2023-06-22T11:23:00;35.10;54.10
8313;DHT22;4194;43.408;24.626;2023-06-22T11:25:25;35.30;55.10
8313;DHT22;4194;43.408;24.626;2023-06-22T11:27:51;35.70;55.70
8313;DHT22;4194;43.408;24.626;2023-06-22T11:30:19;36.00;54.70
8313;DHT22;4194;43.408;24.626;2023-06-22T11:32:45;36.50;54.50
8313;DHT22;4194;43.408;24.626;2023-06-22T11:35:10;36.70;53.60
8313;DHT22;4194;43.408;24.626;2023-06-22T11:37:36;36.60;53.20
8313;DHT22;4194;43.408;24.626;2023-06-22T11:40:02;36.40;53.50
8313;DHT22;4194;43.408;24.626;2023-06-22T11:42:30;36.40;53.50
8313;DHT22;4194;43.408;24.626;2023-06-22T11:44:56;36.40;53.70
8313;DHT22;4194;43.408;24.626;2023-06-22T11:47:22;36.60;52.80
8313;DHT22;4194;43.408;24.626;2023-06-22T11:49:47;36.50;52.60
8313;DHT22;4194;43.408;24.626;2023-06-22T11:52:13;36.40;53.70
8313;DHT22;4194;43.408;24.626;2023-06-22T11:54:39;36.40;53.10
8313;DHT22;4194;43.408;24.626;2023-06-22T11:57:04;36.30;55.10
8313;DHT22;4194;43.408;24.626;2023-06-22T11:59:30;36.30;53.20
8313;DHT22;4194;43.408;24.626;2023-06-22T12:01:57;36.20;53.70
8313;DHT22;4194;43.408;24.626;2023-06-22T12:04:23;35.80;56.60
8313;DHT22;4194;43.408;24.626;2023-06-22T12:06:49;35.40;57.40
8313;DHT22;4194;43.408;24.626;2023-06-22T12:09:15;35.40;57.40
8313;DHT22;4194;43.408;24.626;2023-06-22T12:11:41;35.20;59.30
8313;DHT22;4194;43.408;24.626;2023-06-22T12:14:06;35.00;59.80
8313;DHT22;4194;43.408;24.626;2023-06-22T12:16:32;35.00;60.60
8313;DHT22;4194;43.408;24.626;2023-06-22T12:18:58;35.00;60.80
8313;DHT22;4194;43.408;24.626;2023-06-22T12:21:23;35.00;58.80
8313;DHT22;4194;43.408;24.626;2023-06-22T12:23:49;34.90;59.60
8313;DHT22;4194;43.408;24.626;2023-06-22T12:26:15;34.70;58.00
8313;DHT22;4194;43.408;24.626;2023-06-22T12:28:41;34.50;59.00
8313;DHT22;4194;43.408;24.626;2023-06-22T12:31:06;34.50;60.60
8313;DHT22;4194;43.408;24.626;2023-06-22T12:33:32;34.10;61.60
8313;DHT22;4194;43.408;24.626;2023-06-22T12:35:58;33.80;61.70
8313;DHT22;4194;43.408;24.626;2023-06-22T12:38:23;33.30;63.90
8313;DHT22;4194;43.408;24.626;2023-06-22T12:40:52;33.40;61.50
8313;DHT22;4194;43.408;24.626;2023-06-22T12:43:18;33.50;64.90
8313;DHT22;4194;43.408;24.626;2023-06-22T12:45:44;33.40;63.70
8313;DHT22;4194;43.408;24.626;2023-06-22T12:48:09;34.10;63.00
8313;DHT22;4194;43.408;24.626;2023-06-22T12:50:35;35.30;60.60
8313;DHT22;4194;43.408;24.626;2023-06-22T12:53:01;36.20;57.20
8313;DHT22;4194;43.408;24.626;2023-06-22T12:55:28;36.40;55.80
8313;DHT22;4194;43.408;24.626;2023-06-22T12:57:54;36.60;54.60
8313;DHT22;4194;43.408;24.626;2023-06-22T13:00:20;36.60;56.10
8313;DHT22;4194;43.408;24.626;2023-06-22T13:02:45;36.20;54.90
8313;DHT22;4194;43.408;24.626;2023-06-22T13:05:11;36.10;55.10
8313;DHT22;4194;43.408;24.626;2023-06-22T13:07:37;36.00;55.00
8313;DHT22;4194;43.408;24.626;2023-06-22T13:10:03;36.20;55.30
8313;DHT22;4194;43.408;24.626;2023-06-22T13:12:29;37.10;54.10
8313;DHT22;4194;43.408;24.626;2023-06-22T13:14:54;37.10;53.70
8313;DHT22;4194;43.408;24.626;2023-06-22T13:17:20;37.20;53.10
8313;DHT22;4194;43.408;24.626;2023-06-22T13:19:46;37.00;54.30
8313;DHT22;4194;43.408;24.626;2023-06-22T13:24:55;36.10;55.20
8313;DHT22;4194;43.408;24.626;2023-06-22T13:27:21;35.50;55.90
8313;DHT22;4194;43.408;24.626;2023-06-22T13:29:47;35.00;55.90
8313;DHT22;4194;43.408;24.626;2023-06-22T13:32:13;34.90;56.70
8313;DHT22;4194;43.408;24.626;2023-06-22T13:34:38;35.20;56.90
8313;DHT22;4194;43.408;24.626;2023-06-22T13:37:04;35.10;57.50
8313;DHT22;4194;43.408;24.626;2023-06-22T13:39:30;34.80;57.30
8313;DHT22;4194;43.408;24.626;2023-06-22T13:41:57;34.90;57.60
8313;DHT22;4194;43.408;24.626;2023-06-22T13:44:23;35.20;57.50
8313;DHT22;4194;43.408;24.626;2023-06-22T13:46:53;36.60;55.20
8313;DHT22;4194;43.408;24.626;2023-06-22T13:49:18;38.00;53.50
8313;DHT22;4194;43.408;24.626;2023-06-22T13:51:44;40.20;49.70
8313;DHT22;4194;43.408;24.626;2023-06-22T13:54:10;41.50;49.80
8313;DHT22;4194;43.408;24.626;2023-06-22T13:56:35;41.60;48.30
8313;DHT22;4194;43.408;24.626;2023-06-22T13:59:01;42.60;47.80
8313;DHT22;4194;43.408;24.626;2023-06-22T14:01:27;43.40;46.60
8313;DHT22;4194;43.408;24.626;2023-06-22T14:03:52;43.70;46.10
8313;DHT22;4194;43.408;24.626;2023-06-22T14:06:18;42.20;46.60
8313;DHT22;4194;43.408;24.626;2023-06-22T14:08:43;41.10;48.90
8313;DHT22;4194;43.408;24.626;2023-06-22T14:11:10;40.50;49.10
8313;DHT22;4194;43.408;24.626;2023-06-22T14:13:35;40.00;50.30
8313;DHT22;4194;43.408;24.626;2023-06-22T14:16:02;40.30;51.30
8313;DHT22;4194;43.408;24.626;2023-06-22T14:18:29;40.20;51.40
8313;DHT22;4194;43.408;24.626;2023-06-22T14:20:54;39.60;51.50
8313;DHT22;4194;43.408;24.626;2023-06-22T14:23:20;38.30;53.70
8313;DHT22;4194;43.408;24.626;2023-06-22T14:25:46;38.50;53.90
8313;DHT22;4194;43.408;24.626;2023-06-22T14:28:12;40.00;52.20
8313;DHT22;4194;43.408;24.626;2023-06-22T14:30:37;41.40;50.10
8313;DHT22;4194;43.408;24.626;2023-06-22T14:33:03;43.20;46.60
8313;DHT22;4194;43.408;24.626;2023-06-22T14:35:29;44.00;44.90
8313;DHT22;4194;43.408;24.626;2023-06-22T14:37:54;45.30;44.20
8313;DHT22;4194;43.408;24.626;2023-06-22T14:40:20;46.10;43.00
8313;DHT22;4194;43.408;24.626;2023-06-22T14:42:45;46.70;41.30
8313;DHT22;4194;43.408;24.626;2023-06-22T14:45:12;47.20;41.50
8313;DHT22;4194;43.408;24.626;2023-06-22T14:47:38;47.00;41.40
8313;DHT22;4194;43.408;24.626;2023-06-22T14:50:05;47.50;40.70
8313;DHT22;4194;43.408;24.626;2023-06-22T14:52:31;47.70;40.60
8313;DHT22;4194;43.408;24.626;2023-06-22T14:54:56;47.50;40.50
8313;DHT22;4194;43.408;24.626;2023-06-22T14:57:22;47.40;41.50
8313;DHT22;4194;43.408;24.626;2023-06-22T14:59:49;47.50;41.50
8313;DHT22;4194;43.408;24.626;2023-06-22T15:02:14;47.90;40.90
8313;DHT22;4194;43.408;24.626;2023-06-22T15:04:40;47.20;40.30
8313;DHT22;4194;43.408;24.626;2023-06-22T15:07:06;44.90;42.20
8313;DHT22;4194;43.408;24.626;2023-06-22T15:09:31;43.80;45.40
8313;DHT22;4194;43.408;24.626;2023-06-22T15:11:58;43.70;44.60
8313;DHT22;4194;43.408;24.626;2023-06-22T15:14:27;44.60;44.20
8313;DHT22;4194;43.408;24.626;2023-06-22T15:16:53;46.10;42.80
8313;DHT22;4194;43.408;24.626;2023-06-22T15:19:18;47.10;42.00
8313;DHT22;4194;43.408;24.626;2023-06-22T15:21:44;47.70;41.00
8313;DHT22;4194;43.408;24.626;2023-06-22T15:24:10;47.30;40.80
8313;DHT22;4194;43.408;24.626;2023-06-22T15:26:36;47.20;41.50
8313;DHT22;4194;43.408;24.626;2023-06-22T15:29:02;46.70;40.70
8313;DHT22;4194;43.408;24.626;2023-06-22T15:31:27;46.40;41.60
8313;DHT22;4194;43.408;24.626;2023-06-22T15:33:53;46.40;43.10
8313;DHT22;4194;43.408;24.626;2023-06-22T15:36:19;45.40;42.60
8313;DHT22;4194;43.408;24.626;2023-06-22T15:38:44;44.40;43.60
8313;DHT22;4194;43.408;24.626;2023-06-22T15:41:11;44.10;44.80
8313;DHT22;4194;43.408;24.626;2023-06-22T15:43:36;44.30;45.00
8313;DHT22;4194;43.408;24.626;2023-06-22T15:46:02;44.00;44.60
8313;DHT22;4194;43.408;24.626;2023-06-22T15:48:27;43.80;45.20
8313;DHT22;4194;43.408;24.626;2023-06-22T15:50:53;43.10;45.90
8313;DHT22;4194;43.408;24.626;2023-06-22T15:53:19;42.30;46.60